Time;durP1;ratioP1;P1;durP2;ratioP2;P2;SDS_P1;SDS_P2;PMS_P1;PMS_P2;Temp;Humidity;BMP_temperature;BMP_pressure;BME280_temperature;BME280_humidity;BME280_pressure;Samples;Min_cycle;Max_cycle;Signal;HPM_P1;HPM_P2
2022/12/12 00:01:27;;;;;;;1.02;0.52;;;13.40;75.50;;;;;;4196109;28;20047;-63
2022/12/12 00:04:10;;;;;;;0.00;0.00;;;13.40;75.50;;;;;;4208311;28;20047;-63
2022/12/12 00:06:51;;;;;;;0.00;0.00;;;13.40;75.50;;;;;;4191633;28;20059;-63
2022/12/12 00:09:32;;;;;;;0.28;0.28;;;13.40;75.60;;;;;;4191465;28;20051;-63
2022/12/12 00:12:13;;;;;;;0.00;0.00;;;13.40;75.60;;;;;;4205775;28;20104;-63
2022/12/12 00:14:54;;;;;;;0.00;0.00;;;13.40;75.60;;;;;;4208693;28;20051;-63
2022/12/12 00:17:35;;;;;;;0.08;0.08;;;13.40;75.60;;;;;;4210520;28;20857;-63
2022/12/12 00:20:17;;;;;;;0.70;0.70;;;13.50;75.40;;;;;;4211720;28;20055;-63
2022/12/12 00:22:58;;;;;;;0.28;0.28;;;13.60;75.20;;;;;;4194267;28;20055;-63
2022/12/12 00:25:39;;;;;;;3.30;1.50;;;13.70;75.00;;;;;;4194605;28;20055;-62
2022/12/12 00:28:20;;;;;;;0.08;0.08;;;13.70;74.50;;;;;;4194759;28;20571;-62
2022/12/12 00:31:01;;;;;;;6.13;1.07;;;13.80;74.30;;;;;;4194829;28;20046;-62
2022/12/12 00:33:43;;;;;;;0.00;0.00;;;13.80;73.80;;;;;;4211481;28;20498;-63
2022/12/12 00:36:27;;;;;;;0.00;0.00;;;13.90;73.70;;;;;;4211016;28;20403;-63
2022/12/12 00:39:09;;;;;;;0.28;0.28;;;13.90;73.50;;;;;;4193805;28;20047;-63
2022/12/12 00:41:56;;;;;;;1.95;0.45;;;13.90;73.40;;;;;;4194379;28;20043;-61
2022/12/12 00:44:37;;;;;;;0.70;0.70;;;13.90;74.30;;;;;;4191450;28;20060;-63
2022/12/12 00:47:18;;;;;;;0.00;0.00;;;14.00;73.40;;;;;;4210274;28;20051;-62
2022/12/12 00:49:58;;;;;;;0.00;0.00;;;14.10;73.10;;;;;;4210305;28;20047;-63
2022/12/12 00:52:41;;;;;;;0.08;0.08;;;14.10;72.70;;;;;;4209746;28;20403;-63
2022/12/12 00:55:22;;;;;;;0.20;0.20;;;14.20;72.40;;;;;;4211178;28;20051;-63
2022/12/12 00:58:02;;;;;;;1.53;1.47;;;14.20;72.20;;;;;;4211189;28;20053;-62
2022/12/12 01:00:44;;;;;;;0.00;0.00;;;14.30;72.00;;;;;;4208198;28;20285;-62
2022/12/12 01:03:25;;;;;;;0.65;0.65;;;14.40;71.70;;;;;;4211075;28;20504;-62
2022/12/12 01:06:06;;;;;;;0.00;0.00;;;14.40;71.50;;;;;;4194109;28;20048;-62
2022/12/12 01:08:50;;;;;;;1.85;1.75;;;14.40;71.40;;;;;;4210132;28;20495;-63
2022/12/12 01:11:31;;;;;;;0.00;0.00;;;14.40;71.20;;;;;;4193066;28;20067;-62
2022/12/12 01:14:12;;;;;;;0.20;0.20;;;14.40;71.20;;;;;;4194021;28;20050;-62
2022/12/12 01:16:53;;;;;;;0.00;0.00;;;14.40;71.20;;;;;;4193719;28;20073;-62
2022/12/12 01:19:34;;;;;;;0.00;0.00;;;14.40;71.30;;;;;;4209687;28;20055;-62
2022/12/12 01:22:15;;;;;;;0.00;0.00;;;14.50;71.30;;;;;;4209796;28;20067;-62
2022/12/12 01:24:59;;;;;;;0.17;0.17;;;14.50;70.90;;;;;;4197391;28;20054;-62
2022/12/12 01:27:40;;;;;;;0.00;0.00;;;14.60;70.70;;;;;;4197055;28;20162;-64
2022/12/12 01:30:22;;;;;;;0.10;0.10;;;14.60;70.50;;;;;;4209330;28;20097;-62
2022/12/12 01:33:03;;;;;;;0.20;0.20;;;14.60;70.20;;;;;;4209033;28;20289;-62
2022/12/12 01:35:44;;;;;;;0.40;0.40;;;14.60;70.20;;;;;;4209248;28;20047;-63
2022/12/12 01:38:25;;;;;;;0.00;0.00;;;14.60;70.20;;;;;;4209289;28;20051;-62
2022/12/12 01:41:08;;;;;;;2.30;2.17;;;14.60;70.20;;;;;;4209438;28;20069;-62
2022/12/12 01:43:50;;;;;;;0.00;0.00;;;14.70;70.30;;;;;;4209987;28;20051;-62
2022/12/12 01:46:36;;;;;;;0.82;0.82;;;14.70;70.00;;;;;;4206629;28;20051;-62
2022/12/12 01:49:22;;;;;;;0.00;0.00;;;14.70;69.80;;;;;;4207752;28;20132;-62
2022/12/12 01:52:08;;;;;;;0.08;0.08;;;14.80;69.70;;;;;;4193777;28;20047;-63
2022/12/12 01:54:53;;;;;;;0.00;0.00;;;14.80;69.40;;;;;;4210101;28;20063;-63
2022/12/12 01:57:40;;;;;;;0.10;0.10;;;14.90;69.30;;;;;;4210015;28;20059;-63
2022/12/12 02:00:20;;;;;;;1.55;0.57;;;14.90;70.00;;;;;;4209557;28;20501;-63
2022/12/12 02:03:01;;;;;;;0.00;0.00;;;14.80;69.10;;;;;;4209962;28;20054;-63
2022/12/12 02:05:46;;;;;;;0.00;0.00;;;14.80;69.20;;;;;;4192991;28;20048;-62
2022/12/12 02:08:28;;;;;;;2.28;1.45;;;14.90;69.20;;;;;;4208722;28;20124;-63
2022/12/12 02:11:09;;;;;;;0.00;0.00;;;14.90;69.00;;;;;;4208858;28;20075;-63
2022/12/12 02:13:51;;;;;;;0.00;0.00;;;14.90;68.80;;;;;;4209101;28;20152;-62
2022/12/12 02:16:49;;;;;;;2.45;1.20;;;14.90;68.70;;;;;;4208935;28;20288;-63
2022/12/12 02:19:57;;;;;;;1.02;1.02;;;14.90;68.80;;;;;;4173787;28;20491;-63
2022/12/12 02:23:08;;;;;;;0.00;0.00;;;14.90;68.80;;;;;;4175111;28;20056;-63
2022/12/12 02:26:08;;;;;;;0.00;0.00;;;15.00;68.60;;;;;;4176107;28;20044;-62
2022/12/12 02:29:24;;;;;;;0.55;0.55;;;15.00;68.40;;;;;;4159415;28;20056;-62
2022/12/12 02:32:12;;;;;;;1.85;0.95;;;15.00;68.20;;;;;;4159420;28;20052;-63
2022/12/12 02:35:02;;;;;;;0.73;0.73;;;15.10;68.10;;;;;;4158098;28;20052;-63
2022/12/12 02:37:54;;;;;;;0.10;0.10;;;15.10;67.80;;;;;;4169051;28;20051;-63
2022/12/12 02:40:39;;;;;;;0.35;0.35;;;15.10;67.80;;;;;;4158630;28;20397;-59
2022/12/12 02:43:30;;;;;;;0.00;0.00;;;15.10;67.80;;;;;;4155828;28;20051;-62
2022/12/12 02:46:14;;;;;;;;;;;15.20;67.60;;;;;;4159504;28;20204;-62
2022/12/12 02:49:01;;;;;;;14.90;1.38;;;15.20;67.40;;;;;;4159520;28;20383;-62
2022/12/12 02:51:42;;;;;;;0.00;0.00;;;15.20;67.30;;;;;;4159573;28;20086;-63
2022/12/12 02:54:24;;;;;;;0.00;0.00;;;15.10;67.30;;;;;;4168319;28;20056;-63
2022/12/12 02:57:12;;;;;;;0.10;0.10;;;15.10;67.50;;;;;;4174599;28;20056;-62
2022/12/12 02:59:57;;;;;;;0.00;0.00;;;15.10;67.80;;;;;;4174647;28;20491;-62
2022/12/12 03:09:26;;;;;;;0.00;0.00;;;15.10;67.90;;;;;;4159205;28;20045;-62
2022/12/12 03:12:11;;;;;;;0.05;0.05;;;15.10;67.90;;;;;;4159270;28;20176;-61
2022/12/12 03:15:00;;;;;;;0.38;0.25;;;15.00;67.80;;;;;;4163005;28;20056;-62
2022/12/12 03:17:45;;;;;;;0.10;0.10;;;15.10;67.70;;;;;;4177227;28;20060;-62
2022/12/12 03:20:28;;;;;;;0.00;0.00;;;15.20;67.60;;;;;;4191960;28;20055;-62
2022/12/12 03:23:15;;;;;;;0.65;0.65;;;15.10;67.50;;;;;;4199639;28;20055;-63
2022/12/12 03:26:01;;;;;;;0.00;0.00;;;15.20;67.40;;;;;;4179694;28;20055;-63
2022/12/12 03:28:47;;;;;;;0.00;0.00;;;15.20;67.20;;;;;;4192334;28;20178;-62
2022/12/12 03:31:31;;;;;;;0.00;0.00;;;15.30;67.00;;;;;;4192238;28;20126;-62
2022/12/12 03:34:17;;;;;;;0.00;0.00;;;15.30;66.90;;;;;;4192100;28;20110;-62
2022/12/12 03:37:06;;;;;;;0.10;0.10;;;15.30;66.80;;;;;;4175237;28;20048;-64
2022/12/12 03:39:52;;;;;;;0.00;0.00;;;15.30;66.80;;;;;;4174122;28;20052;-62
2022/12/12 03:42:40;;;;;;;0.00;0.00;;;15.30;66.80;;;;;;4180603;28;20129;-62
2022/12/12 03:45:29;;;;;;;0.77;0.77;;;15.30;66.90;;;;;;4192035;28;20102;-62
2022/12/12 03:48:13;;;;;;;0.63;0.63;;;15.20;67.00;;;;;;4191964;28;20074;-62
2022/12/12 03:50:58;;;;;;;0.08;0.08;;;15.30;66.90;;;;;;4191601;28;20051;-62
2022/12/12 03:53:43;;;;;;;0.00;0.00;;;15.30;66.80;;;;;;4194887;28;20047;-62
2022/12/12 03:56:30;;;;;;;0.55;0.55;;;15.30;66.80;;;;;;4194857;28;20150;-62
2022/12/12 03:59:14;;;;;;;0.20;0.20;;;15.30;66.70;;;;;;4194883;28;20047;-62
2022/12/12 04:01:58;;;;;;;0.50;0.50;;;15.30;66.80;;;;;;4194720;28;20707;-62
2022/12/12 04:04:43;;;;;;;0.00;0.00;;;15.20;67.70;;;;;;4195126;28;20063;-62
2022/12/12 04:07:29;;;;;;;0.00;0.00;;;15.30;67.00;;;;;;4194831;28;20051;-62
2022/12/12 04:13:30;;;;;;;0.00;0.00;;;15.30;66.80;;;;;;4127141;28;20173;-62
2022/12/12 04:16:14;;;;;;;0.00;0.00;;;15.30;66.80;;;;;;4127004;28;20774;-62
2022/12/12 04:19:01;;;;;;;0.00;0.00;;;15.30;66.70;;;;;;4194999;28;20051;-62
2022/12/12 04:24:52;;;;;;;0.00;0.00;;;15.40;66.10;;;;;;4191895;28;20407;-62
2022/12/12 04:27:39;;;;;;;0.00;0.00;;;15.50;65.90;;;;;;4194810;28;20511;-62
2022/12/12 04:30:21;;;;;;;1.08;1.08;;;15.50;65.80;;;;;;4194414;28;20055;-62
2022/12/12 04:33:07;;;;;;;0.00;0.00;;;15.60;65.50;;;;;;4193419;28;20047;-62
2022/12/12 04:35:51;;;;;;;0.47;0.47;;;15.60;65.30;;;;;;4194477;28;20134;-62
2022/12/12 04:38:33;;;;;;;0.75;0.40;;;15.60;65.30;;;;;;4194374;28;20055;-62
2022/12/12 04:41:16;;;;;;;0.00;0.00;;;15.60;65.20;;;;;;4193728;28;20047;-63
2022/12/12 04:43:58;;;;;;;0.00;0.00;;;15.60;65.30;;;;;;4194186;28;20059;-62
2022/12/12 04:46:41;;;;;;;1.67;1.58;;;15.60;65.40;;;;;;4194507;28;20078;-62
2022/12/12 04:49:26;;;;;;;0.28;0.28;;;15.60;65.30;;;;;;4194336;28;20098;-62
2022/12/12 04:52:09;;;;;;;0.15;0.15;;;15.70;65.10;;;;;;4193739;28;20052;-62
2022/12/12 04:54:55;;;;;;;0.00;0.00;;;15.70;65.00;;;;;;4194142;28;20070;-62
2022/12/12 04:57:41;;;;;;;0.00;0.00;;;15.70;65.00;;;;;;4177420;28;20051;-62
2022/12/12 05:00:23;;;;;;;0.55;0.52;;;15.60;65.10;;;;;;4198964;28;20042;-62
2022/12/12 05:03:10;;;;;;;0.10;0.10;;;15.60;65.20;;;;;;4197201;28;20058;-64
2022/12/12 05:05:56;;;;;;;0.08;0.08;;;15.70;65.10;;;;;;4209971;28;20055;-62
2022/12/12 05:08:41;;;;;;;0.63;0.63;;;15.70;64.80;;;;;;4209970;28;20125;-62
2022/12/12 05:11:22;;;;;;;0.00;0.00;;;15.70;64.70;;;;;;4209680;28;20051;-62
2022/12/12 05:14:03;;;;;;;0.28;0.28;;;15.70;64.80;;;;;;4209852;28;20050;-62
2022/12/12 05:16:48;;;;;;;0.43;0.43;;;15.70;64.90;;;;;;4209870;28;20059;-62
2022/12/12 05:19:30;;;;;;;0.00;0.00;;;15.70;65.70;;;;;;4209693;28;20086;-62
2022/12/12 05:22:12;;;;;;;0.00;0.00;;;15.70;64.60;;;;;;4209454;28;20055;-62
2022/12/12 05:24:53;;;;;;;0.00;0.00;;;15.80;64.60;;;;;;4209910;28;20050;-62
2022/12/12 05:27:34;;;;;;;0.22;0.22;;;15.80;64.60;;;;;;4197812;28;20059;-62
2022/12/12 05:30:15;;;;;;;0.00;0.00;;;15.80;64.30;;;;;;4192815;28;20075;-51
2022/12/12 05:32:56;;;;;;;0.00;0.00;;;15.80;64.20;;;;;;4192994;28;20052;-52
2022/12/12 05:35:38;;;;;;;0.00;0.00;;;15.80;64.30;;;;;;4192762;28;20089;-62
2022/12/12 05:38:19;;;;;;;0.00;0.00;;;15.80;64.60;;;;;;4197324;28;20051;-54
2022/12/12 05:41:00;;;;;;;0.00;0.00;;;15.70;64.40;;;;;;4209294;28;20556;-53
2022/12/12 05:43:41;;;;;;;0.30;0.30;;;15.60;64.60;;;;;;4209336;28;20348;-54
2022/12/12 05:46:22;;;;;;;0.00;0.00;;;15.60;64.90;;;;;;4192838;28;20125;-50
2022/12/12 05:49:04;;;;;;;0.00;0.00;;;15.50;65.10;;;;;;4205781;28;20289;-54
2022/12/12 05:51:46;;;;;;;0.63;0.63;;;15.50;65.30;;;;;;4209551;28;20051;-53
2022/12/12 05:54:27;;;;;;;0.00;0.00;;;15.60;65.10;;;;;;4209222;28;20189;-53
2022/12/12 05:57:09;;;;;;;;;;;15.60;64.80;;;;;;4209749;28;20051;-50
2022/12/12 05:59:50;;;;;;;0.20;0.20;;;15.60;64.70;;;;;;4192636;28;19931;-51
2022/12/12 06:02:30;;;;;;;1.25;0.47;;;15.70;64.70;;;;;;4192383;28;20055;-52
2022/12/12 06:05:11;;;;;;;0.05;0.05;;;15.70;64.40;;;;;;4192162;28;20051;-50
2022/12/12 06:07:53;;;;;;;0.40;0.40;;;15.70;64.40;;;;;;4197308;28;20055;-62
2022/12/12 06:10:36;;;;;;;1.35;0.65;;;15.70;64.40;;;;;;4208490;28;20083;-62
2022/12/12 06:13:16;;;;;;;0.00;0.00;;;15.70;64.60;;;;;;4208911;28;20051;-62
2022/12/12 06:15:57;;;;;;;0.00;0.00;;;15.70;64.60;;;;;;4208797;28;20510;-62
2022/12/12 06:18:38;;;;;;;0.00;0.00;;;15.70;64.30;;;;;;4203895;28;20125;-62
2022/12/12 06:21:20;;;;;;;0.40;0.40;;;15.80;64.10;;;;;;4208925;28;20124;-62
2022/12/12 06:24:04;;;;;;;0.98;0.98;;;15.80;64.10;;;;;;4208814;28;20104;-63
2022/12/12 06:26:45;;;;;;;0.00;0.00;;;15.70;64.10;;;;;;4208918;28;20059;-62
2022/12/12 06:29:26;;;;;;;0.00;0.00;;;15.70;64.10;;;;;;4191933;28;20511;-50
2022/12/12 06:32:07;;;;;;;0.57;0.57;;;15.80;64.00;;;;;;4199442;28;20067;-50
2022/12/12 06:34:48;;;;;;;5.47;1.08;;;15.80;63.80;;;;;;4193732;28;20051;-53
2022/12/12 06:37:29;;;;;;;0.00;0.00;;;15.80;63.90;;;;;;4183446;28;20506;-51
2022/12/12 06:40:12;;;;;;;0.00;0.00;;;15.80;63.90;;;;;;4208572;28;20059;-54
2022/12/12 06:42:53;;;;;;;0.00;0.00;;;15.70;63.90;;;;;;4208576;28;20055;-52
2022/12/12 06:45:34;;;;;;;0.00;0.00;;;15.70;64.00;;;;;;4208658;28;20185;-52
2022/12/12 06:48:15;;;;;;;0.22;0.22;;;15.70;64.20;;;;;;4208416;28;20407;-52
2022/12/12 06:50:56;;;;;;;0.75;0.75;;;15.60;64.30;;;;;;4208310;28;20047;-50
2022/12/12 06:53:38;;;;;;;0.15;0.15;;;15.60;64.50;;;;;;4207618;28;20070;-54
2022/12/12 06:56:22;;;;;;;0.00;0.00;;;15.50;64.60;;;;;;4208627;28;20054;-49
2022/12/12 06:59:03;;;;;;;0.22;0.22;;;15.50;65.50;;;;;;4208452;28;20054;-50
2022/12/12 07:01:44;;;;;;;0.30;0.30;;;15.50;65.70;;;;;;4208301;28;20047;-52
2022/12/12 07:04:25;;;;;;;0.25;0.25;;;15.60;65.50;;;;;;4207486;28;20101;-50
2022/12/12 07:07:06;;;;;;;0.80;0.80;;;15.70;65.20;;;;;;4195163;28;20074;-52
2022/12/12 07:09:47;;;;;;;3.10;2.83;;;15.70;65.00;;;;;;4195199;28;20122;-51
2022/12/12 07:12:29;;;;;;;0.00;0.00;;;15.70;65.00;;;;;;4203230;28;20050;-51
2022/12/12 07:15:10;;;;;;;0.00;0.00;;;15.70;64.90;;;;;;4204628;28;20117;-49
2022/12/12 07:17:53;;;;;;;0.00;0.00;;;15.70;64.70;;;;;;4192003;28;20051;-50
2022/12/12 07:20:34;;;;;;;1.65;1.55;;;15.80;64.50;;;;;;4207922;28;20051;-48
2022/12/12 07:23:15;;;;;;;0.75;0.75;;;15.80;64.40;;;;;;4207170;28;20403;-51
2022/12/12 07:25:56;;;;;;;0.00;0.00;;;15.70;64.50;;;;;;4203050;28;20047;-56
2022/12/12 07:28:38;;;;;;;3.72;1.30;;;15.70;64.70;;;;;;4211762;28;20055;-49
2022/12/12 07:31:21;;;;;;;3.30;0.70;;;15.60;64.90;;;;;;4211869;28;20051;-48
2022/12/12 07:34:01;;;;;;;0.15;0.15;;;15.60;65.00;;;;;;4212150;28;20055;-49
2022/12/12 07:36:42;;;;;;;0.20;0.20;;;15.60;65.00;;;;;;4212179;28;20568;-47
2022/12/12 07:39:23;;;;;;;0.00;0.00;;;15.50;65.00;;;;;;4195150;28;20048;-53
2022/12/12 07:42:04;;;;;;;0.08;0.08;;;15.50;65.90;;;;;;4197702;28;20047;-51
2022/12/12 07:44:46;;;;;;;0.00;0.00;;;15.40;65.00;;;;;;4195135;28;20060;-53
2022/12/12 07:47:27;;;;;;;1.08;1.08;;;15.40;65.20;;;;;;4196223;28;20141;-53
2022/12/12 07:50:08;;;;;;;0.00;0.00;;;15.30;65.30;;;;;;4211269;28;20407;-49
2022/12/12 07:52:49;;;;;;;;;;;15.30;65.40;;;;;;4211455;28;20055;-49
2022/12/12 07:55:30;;;;;;;0.00;0.00;;;15.30;65.40;;;;;;4209928;28;20278;-50
2022/12/12 07:58:11;;;;;;;0.08;0.08;;;15.30;65.60;;;;;;4208278;28;20197;-51
2022/12/12 08:00:54;;;;;;;0.00;0.00;;;15.30;65.60;;;;;;4208350;28;20055;-52
2022/12/12 08:03:34;;;;;;;0.00;0.00;;;15.20;65.70;;;;;;4208449;28;20051;-49
2022/12/12 08:06:16;;;;;;;0.47;0.47;;;15.10;65.80;;;;;;4208917;28;20152;-51
2022/12/12 08:08:57;;;;;;;0.00;0.00;;;15.10;66.20;;;;;;4207829;28;20376;-52
2022/12/12 08:11:39;;;;;;;0.00;0.00;;;15.00;66.50;;;;;;4208627;28;20449;-49
2022/12/12 08:14:26;;;;;;;0.00;0.00;;;15.00;66.80;;;;;;4207856;28;20130;-52
2022/12/12 08:17:08;;;;;;;0.00;0.00;;;15.10;66.70;;;;;;4207212;28;20055;-52
2022/12/12 08:19:49;;;;;;;0.25;0.25;;;15.10;66.50;;;;;;4208369;28;20066;-47
2022/12/12 08:22:30;;;;;;;0.00;0.00;;;15.10;66.40;;;;;;4208121;28;20559;-51
2022/12/12 08:25:11;;;;;;;0.22;0.22;;;15.10;66.20;;;;;;4207785;28;20109;-47
2022/12/12 08:27:52;;;;;;;0.10;0.10;;;15.10;66.20;;;;;;4206930;28;20351;-51
2022/12/12 08:30:33;;;;;;;0.35;0.35;;;15.10;66.20;;;;;;4207862;28;20105;-53
2022/12/12 08:33:15;;;;;;;0.00;0.00;;;15.10;66.30;;;;;;4207546;28;20054;-52
2022/12/12 08:35:57;;;;;;;0.55;0.55;;;15.10;66.30;;;;;;4208072;28;20067;-48
2022/12/12 08:38:39;;;;;;;0.15;0.15;;;15.10;66.30;;;;;;4206351;28;20063;-48
2022/12/12 08:41:20;;;;;;;0.00;0.00;;;15.10;66.30;;;;;;4207609;28;20502;-53
2022/12/12 08:44:01;;;;;;;0.00;0.00;;;15.10;66.40;;;;;;4207114;28;20054;-52
2022/12/12 08:46:42;;;;;;;0.00;0.00;;;15.10;66.10;;;;;;4208207;28;20059;-53
2022/12/12 08:49:24;;;;;;;0.35;0.35;;;15.20;65.80;;;;;;4207086;28;20289;-49
2022/12/12 08:52:08;;;;;;;0.00;0.00;;;15.30;65.60;;;;;;4206969;28;20070;-50
2022/12/12 08:54:49;;;;;;;0.00;0.00;;;15.30;65.50;;;;;;4207609;28;20047;-52
2022/12/12 08:57:33;;;;;;;0.10;0.10;;;15.40;65.30;;;;;;4207505;28;20051;-49
2022/12/12 09:00:15;;;;;;;0.10;0.10;;;15.40;64.90;;;;;;4207639;28;20047;-52
2022/12/12 09:02:56;;;;;;;0.00;0.00;;;15.40;65.00;;;;;;4207883;28;21142;-50
2022/12/12 09:05:42;;;;;;;0.00;0.00;;;15.40;65.00;;;;;;4207517;28;20101;-50
2022/12/12 09:08:23;;;;;;;0.10;0.10;;;15.40;65.10;;;;;;4206482;28;20059;-52
2022/12/12 09:11:05;;;;;;;0.00;0.00;;;15.40;65.30;;;;;;4207834;28;20047;-52
2022/12/12 09:13:46;;;;;;;0.00;0.00;;;15.30;65.50;;;;;;4206438;28;20054;-52
2022/12/12 09:16:28;;;;;;;0.00;0.00;;;15.30;65.60;;;;;;4207157;28;20121;-47
2022/12/12 09:19:09;;;;;;;0.00;0.00;;;15.20;65.60;;;;;;4206800;28;20046;-52
2022/12/12 09:21:52;;;;;;;0.50;0.50;;;15.20;65.80;;;;;;4206954;28;20051;-58
2022/12/12 09:24:32;;;;;;;3.40;0.65;;;15.20;66.20;;;;;;4207142;28;20055;-58
2022/12/12 09:27:14;;;;;;;0.00;0.00;;;15.10;66.40;;;;;;4207116;28;20082;-59
2022/12/12 09:29:55;;;;;;;0.68;0.63;;;15.10;66.60;;;;;;4206700;28;20062;-58
2022/12/12 09:32:36;;;;;;;0.00;0.00;;;15.00;66.80;;;;;;4207040;28;20059;-58
2022/12/12 09:35:17;;;;;;;0.20;0.20;;;14.90;66.90;;;;;;4206993;28;20051;-59
2022/12/12 09:38:00;;;;;;;4.07;0.75;;;14.90;67.00;;;;;;4207131;28;20092;-59
2022/12/12 09:40:49;;;;;;;1.00;0.80;;;14.90;67.00;;;;;;4206974;28;20055;-58
2022/12/12 09:43:32;;;;;;;0.00;0.00;;;14.80;67.10;;;;;;4206392;28;20055;-59
2022/12/12 09:46:21;;;;;;;0.40;0.40;;;14.90;67.30;;;;;;4194285;28;20087;-60
2022/12/12 09:49:10;;;;;;;0.88;0.88;;;15.00;67.40;;;;;;4193453;28;20046;-59
2022/12/12 09:51:52;;;;;;;0.10;0.10;;;15.10;68.90;;;;;;4206534;28;20051;-60
2022/12/12 09:54:35;;;;;;;1.05;1.05;;;15.30;68.80;;;;;;4206529;28;20055;-60
2022/12/12 09:57:24;;;;;;;0.75;0.75;;;15.50;67.90;;;;;;4212851;28;20493;-59
2022/12/12 10:00:08;;;;;;;0.00;0.00;;;15.50;67.80;;;;;;4206789;28;20486;-60
2022/12/12 10:03:04;;;;;;;1.85;1.75;;;15.60;68.80;;;;;;4205815;28;20403;-60
2022/12/12 10:05:50;;;;;;;0.03;0.03;;;15.80;67.00;;;;;;4206990;28;20561;-59
2022/12/12 10:09:04;;;;;;;0.00;0.00;;;15.90;66.20;;;;;;4207196;28;20170;-60
2022/12/12 10:11:50;;;;;;;0.00;0.00;;;15.90;65.40;;;;;;4206717;28;20066;-61
2022/12/12 10:14:35;;;;;;;1.10;1.10;;;16.00;65.40;;;;;;4207050;28;20070;-60
2022/12/12 10:17:22;;;;;;;0.00;0.00;;;15.90;65.20;;;;;;4207271;28;20140;-60
2022/12/12 10:20:08;;;;;;;0.17;0.17;;;16.00;65.10;;;;;;4207064;28;20055;-60
2022/12/12 10:22:53;;;;;;;0.00;0.00;;;16.00;64.90;;;;;;4206239;28;20051;-60
2022/12/12 10:25:43;;;;;;;0.03;0.03;;;16.00;64.70;;;;;;4206664;28;20059;-59
2022/12/12 10:28:28;;;;;;;0.00;0.00;;;16.00;64.60;;;;;;4205504;28;20059;-60
2022/12/12 10:31:24;;;;;;;0.00;0.00;;;16.00;64.20;;;;;;4189917;28;20059;-60
2022/12/12 10:34:18;;;;;;;0.10;0.10;;;16.00;64.10;;;;;;4188246;28;20055;-59
2022/12/12 10:37:13;;;;;;;0.00;0.00;;;16.00;64.30;;;;;;4189585;28;20055;-59
2022/12/12 10:40:01;;;;;;;0.00;0.00;;;15.90;64.50;;;;;;4189589;28;20810;-60
2022/12/12 10:42:48;;;;;;;0.25;0.25;;;15.80;64.50;;;;;;4189673;28;20494;-59
2022/12/12 10:46:01;;;;;;;0.00;0.00;;;15.70;64.90;;;;;;4208384;28;20092;-59
2022/12/12 10:48:43;;;;;;;0.00;0.00;;;15.60;65.20;;;;;;4206383;28;20112;-59
2022/12/12 10:51:27;;;;;;;0.47;0.47;;;15.50;65.70;;;;;;4208169;28;20097;-59
2022/12/12 10:54:16;;;;;;;0.00;0.00;;;15.40;66.30;;;;;;4192667;28;20470;-59
2022/12/12 10:57:06;;;;;;;0.03;0.03;;;15.40;66.50;;;;;;4191640;28;20515;-59
2022/12/12 10:59:49;;;;;;;0.45;0.45;;;15.40;66.70;;;;;;4199981;28;20046;-59
2022/12/12 11:02:37;;;;;;;0.10;0.10;;;15.40;67.80;;;;;;4209147;28;20051;-60
2022/12/12 11:05:21;;;;;;;0.00;0.00;;;15.40;67.10;;;;;;4209104;28;20501;-59
2022/12/12 11:08:05;;;;;;;0.38;0.38;;;15.30;67.30;;;;;;4209067;28;20087;-60
2022/12/12 11:11:03;;;;;;;0.00;0.00;;;15.30;67.40;;;;;;4209198;28;20067;-61
2022/12/12 11:13:46;;;;;;;0.10;0.10;;;15.30;67.80;;;;;;4209008;28;20055;-60
2022/12/12 11:16:28;;;;;;;0.10;0.10;;;15.20;67.90;;;;;;4209013;28;20050;-61
2022/12/12 11:19:18;;;;;;;0.10;0.10;;;15.20;68.10;;;;;;4192358;28;20052;-61
2022/12/12 11:22:04;;;;;;;0.00;0.00;;;15.20;68.40;;;;;;4192314;28;20403;-60
2022/12/12 11:24:47;;;;;;;0.00;0.00;;;15.20;68.70;;;;;;4192282;28;20137;-61
2022/12/12 11:27:31;;;;;;;0.00;0.00;;;15.20;69.60;;;;;;4192528;28;20058;-60
2022/12/12 11:30:23;;;;;;;0.43;0.43;;;15.30;68.60;;;;;;4192321;28;20752;-61
2022/12/12 11:33:07;;;;;;;0.22;0.22;;;15.40;68.40;;;;;;4192089;28;20395;-61
2022/12/12 11:35:54;;;;;;;1.17;1.10;;;15.40;68.20;;;;;;4192330;28;20205;-61
2022/12/12 11:38:39;;;;;;;6.32;1.00;;;15.50;68.00;;;;;;4207977;28;20532;-61
2022/12/12 11:41:21;;;;;;;0.52;0.38;;;15.60;67.50;;;;;;4200088;28;20398;-61
2022/12/12 11:44:01;;;;;;;0.00;0.00;;;15.70;67.30;;;;;;4195577;28;20047;-61
2022/12/12 11:46:42;;;;;;;0.30;0.30;;;15.90;66.80;;;;;;4208837;28;20047;-61
2022/12/12 11:49:23;;;;;;;0.70;0.70;;;15.90;66.50;;;;;;4191786;28;20182;-61
2022/12/12 11:52:19;;;;;;;0.30;0.30;;;15.90;66.40;;;;;;4208028;28;20051;-61
2022/12/12 11:55:00;;;;;;;0.10;0.10;;;15.90;66.30;;;;;;4207668;28;20055;-61
2022/12/12 11:57:58;;;;;;;0.00;0.00;;;16.00;66.10;;;;;;4191113;28;20048;-61
2022/12/12 12:00:45;;;;;;;;;;;16.00;66.00;;;;;;4191641;28;20170;-61
2022/12/12 12:03:37;;;;;;;0.10;0.10;;;16.00;66.10;;;;;;4191430;28;19932;-60
2022/12/12 12:06:32;;;;;;;0.35;0.35;;;16.10;65.90;;;;;;4189953;28;20071;-60
2022/12/12 12:09:28;;;;;;;0.15;0.15;;;16.00;66.40;;;;;;4199308;28;20181;-60
2022/12/12 12:12:15;;;;;;;0.00;0.00;;;16.10;66.50;;;;;;4206843;28;20105;-61
2022/12/12 12:15:14;;;;;;;2.65;0.93;;;16.00;65.70;;;;;;4210823;28;20185;-60
2022/12/12 12:18:09;;;;;;;0.00;0.00;;;16.10;65.50;;;;;;4210570;28;20059;-61
2022/12/12 12:21:08;;;;;;;0.03;0.03;;;16.20;65.10;;;;;;4210204;28;20043;-60
2022/12/12 12:24:10;;;;;;;0.38;0.38;;;16.20;64.60;;;;;;4193526;28;20054;-61
2022/12/12 12:27:00;;;;;;;1.55;1.50;;;16.20;64.60;;;;;;4193639;28;20179;-61
2022/12/12 12:30:11;;;;;;;0.00;0.00;;;16.10;64.80;;;;;;4207842;28;20125;-60
2022/12/12 12:33:16;;;;;;;25.40;1.73;;;16.10;64.60;;;;;;4210012;28;20059;-61
2022/12/12 12:36:07;;;;;;;0.00;0.00;;;16.10;64.60;;;;;;4210334;28;20124;-61
2022/12/12 12:38:54;;;;;;;;;;;16.10;64.50;;;;;;4210849;28;20552;-61
2022/12/12 12:41:51;;;;;;;0.00;0.00;;;16.00;64.70;;;;;;4210313;28;19931;-61
2022/12/12 12:44:45;;;;;;;0.20;0.20;;;16.00;64.90;;;;;;4209920;28;20104;-60
2022/12/12 12:47:37;;;;;;;0.25;0.25;;;16.00;64.70;;;;;;4210580;28;20478;-61
2022/12/12 12:50:22;;;;;;;0.10;0.10;;;16.10;64.50;;;;;;4193393;28;20507;-61
2022/12/12 12:53:07;;;;;;;0.00;0.00;;;16.00;64.20;;;;;;4193674;28;20130;-61
2022/12/12 12:55:52;;;;;;;0.17;0.17;;;16.00;64.40;;;;;;4194550;28;20182;-61
2022/12/12 12:58:40;;;;;;;0.00;0.00;;;15.90;64.60;;;;;;4194418;28;20131;-61
2022/12/12 13:01:26;;;;;;;0.25;0.25;;;15.90;64.70;;;;;;4193830;28;20051;-61
2022/12/12 13:04:14;;;;;;;0.30;0.30;;;15.80;64.90;;;;;;4207426;28;20055;-61
2022/12/12 13:06:59;;;;;;;0.00;0.00;;;15.80;64.90;;;;;;4210838;28;20054;-61
2022/12/12 13:09:44;;;;;;;0.38;0.38;;;15.80;65.90;;;;;;4211206;28;20093;-62
2022/12/12 13:12:29;;;;;;;0.10;0.10;;;15.80;66.50;;;;;;4209766;28;20055;-61
2022/12/12 13:15:19;;;;;;;0.17;0.17;;;15.80;66.60;;;;;;4208345;28;20491;-61
2022/12/12 13:18:03;;;;;;;1.00;1.00;;;15.90;66.50;;;;;;4204011;28;20116;-61
2022/12/12 13:20:50;;;;;;;0.93;0.93;;;15.90;66.20;;;;;;4193757;28;20084;-61
2022/12/12 13:23:46;;;;;;;2.65;2.38;;;15.90;66.30;;;;;;4198465;28;20060;-61
2022/12/12 13:26:38;;;;;;;0.00;0.00;;;15.90;66.20;;;;;;4205826;28;20055;-61
2022/12/12 13:29:31;;;;;;;0.00;0.00;;;15.90;65.90;;;;;;4208963;28;20055;-61
2022/12/12 13:32:45;;;;;;;0.20;0.20;;;15.90;65.70;;;;;;4209209;28;20399;-61
2022/12/12 13:35:32;;;;;;;0.95;0.95;;;15.80;65.60;;;;;;4208553;28;20047;-61
2022/12/12 13:38:19;;;;;;;1.75;1.58;;;15.70;65.60;;;;;;4209340;28;20055;-61
2022/12/12 13:41:02;;;;;;;0.63;0.63;;;15.60;65.70;;;;;;4194562;28;20122;-61
2022/12/12 13:43:48;;;;;;;0.00;0.00;;;15.50;65.80;;;;;;4192242;28;20121;-61
2022/12/12 13:46:40;;;;;;;0.10;0.10;;;15.50;67.00;;;;;;4192259;28;20047;-61
2022/12/12 13:49:30;;;;;;;23.77;2.97;;;15.40;67.20;;;;;;4209408;28;20090;-61
2022/12/12 13:52:29;;;;;;;0.38;0.38;;;15.30;66.60;;;;;;4195745;28;20051;-61
2022/12/12 13:55:27;;;;;;;0.10;0.10;;;15.20;66.90;;;;;;4176156;28;20064;-61
2022/12/12 13:58:35;;;;;;;0.57;0.57;;;15.10;67.00;;;;;;4207397;28;20108;-61
2022/12/12 14:01:39;;;;;;;0.00;0.00;;;15.10;67.10;;;;;;4188666;28;20055;-61
2022/12/12 14:04:26;;;;;;;1.17;1.17;;;15.00;67.20;;;;;;4192056;28;20055;-61
2022/12/12 14:07:16;;;;;;;0.68;0.68;;;14.90;67.30;;;;;;4192669;28;20063;-61
2022/12/12 14:10:16;;;;;;;0.00;0.00;;;14.90;67.60;;;;;;4192319;28;20490;-61
2022/12/12 14:13:14;;;;;;;0.10;0.10;;;14.90;67.90;;;;;;4207709;28;20419;-61
2022/12/12 14:16:17;;;;;;;0.20;0.20;;;14.90;67.80;;;;;;4208831;28;20051;-61
2022/12/12 14:19:05;;;;;;;0.20;0.20;;;15.00;67.50;;;;;;4191932;28;20055;-62
2022/12/12 14:21:47;;;;;;;0.57;0.57;;;15.00;67.20;;;;;;4192229;28;20066;-61
2022/12/12 14:25:04;;;;;;;0.32;0.32;;;15.10;67.20;;;;;;4208617;27;20396;-61
2022/12/12 14:28:18;;;;;;;1.20;1.10;;;15.00;67.20;;;;;;4189608;28;20052;-62
2022/12/12 14:31:06;;;;;;;0.00;0.00;;;15.00;67.20;;;;;;4194646;28;20101;-61
2022/12/12 14:34:20;;;;;;;0.17;0.17;;;15.00;67.30;;;;;;4214194;27;20445;-61
2022/12/12 14:37:22;;;;;;;0.05;0.05;;;14.90;67.30;;;;;;4222776;28;20128;-62